CFG8TA LGRP-EDDH
Flight info
| Callsign | CFG8TA |
|---|---|
| Flight time | N/A |
| Altitude | 38000 |
| Route | VANES UM601 ADESO UN133 PEREN UL863 EVIVI L863 OKANA DCT RAVAK DCT TONDO DCT BEGLA DCT LOKVU DCT ODLIV DCT HDO M748 RARUP RARUP6A |
| Aircraft | A320/M-SDE1FGHIJ1LORVWYZ/S |
Departure
| Time | 2026-04-30 13:55 |
|---|---|
| Airport | Rhodes International Airport "Diagoras" (LGRP) |
Arrival
| Time | N/A |
|---|---|
| Airport | Hamburg Helmut Schmidt Airport (EDDH) |
| Time | Latitude | Longitude | Altitude | Speed | Heading |
|---|---|---|---|---|---|
| 2026-04-30 13:19 | 36.40331 | 28.09028 | 29 ft | 0 kts | 160° |
| 2026-04-30 13:46 | 36.40337 | 28.09025 | 29 ft | 4 kts | 160° |
| 2026-04-30 13:46 | 36.40362 | 28.09012 | 29 ft | 4 kts | 153° |
| 2026-04-30 13:46 | 36.40384 | 28.08995 | 29 ft | 4 kts | 134° |
| 2026-04-30 13:47 | 36.40395 | 28.08973 | 29 ft | 0 kts | 82° |
| 2026-04-30 13:50 | 36.40397 | 28.08982 | 29 ft | 6 kts | 81° |
| 2026-04-30 13:50 | 36.40411 | 28.09039 | 29 ft | 8 kts | 71° |
| 2026-04-30 13:51 | 36.40426 | 28.09096 | 29 ft | 11 kts | 71° |
| 2026-04-30 13:51 | 36.40456 | 28.09195 | 29 ft | 12 kts | 68° |
| 2026-04-30 13:51 | 36.40485 | 28.09290 | 29 ft | 14 kts | 68° |
| 2026-04-30 13:51 | 36.40549 | 28.09385 | 29 ft | 14 kts | 36° |
| 2026-04-30 13:52 | 36.40610 | 28.09492 | 28 ft | 19 kts | 71° |
| 2026-04-30 13:52 | 36.40659 | 28.09659 | 26 ft | 21 kts | 69° |
| 2026-04-30 13:52 | 36.40714 | 28.09847 | 25 ft | 25 kts | 70° |
| 2026-04-30 13:52 | 36.40773 | 28.10049 | 23 ft | 23 kts | 70° |
| 2026-04-30 13:53 | 36.40828 | 28.10236 | 20 ft | 23 kts | 70° |
| 2026-04-30 13:53 | 36.40870 | 28.10384 | 24 ft | 16 kts | 69° |
| 2026-04-30 13:53 | 36.40939 | 28.10430 | 23 ft | 5 kts | 340° |
| 2026-04-30 13:53 | 36.40942 | 28.10428 | 24 ft | 0 kts | 333° |
| 2026-04-30 13:54 | 36.40947 | 28.10425 | 24 ft | 4 kts | 333° |
| 2026-04-30 13:54 | 36.40998 | 28.10365 | 22 ft | 16 kts | 309° |
| 2026-04-30 13:54 | 36.40996 | 28.10188 | 25 ft | 39 kts | 250° |
| 2026-04-30 13:55 | 36.40820 | 28.09589 | 29 ft | 107 kts | 250° |
| 2026-04-30 13:55 | 36.40501 | 28.08502 | 28 ft | 159 kts | 251° |
| 2026-04-30 13:55 | 36.40148 | 28.07183 | 613 ft | 159 kts | 256° |
| 2026-04-30 13:55 | 36.39971 | 28.05824 | 1317 ft | 160 kts | 265° |
| 2026-04-30 13:56 | 36.39888 | 28.04443 | 1912 ft | 166 kts | 264° |
| 2026-04-30 13:56 | 36.39793 | 28.02923 | 2249 ft | 188 kts | 264° |
| 2026-04-30 13:56 | 36.39683 | 28.01209 | 2542 ft | 210 kts | 265° |
| 2026-04-30 13:56 | 36.39604 | 27.99950 | 2798 ft | 224 kts | 264° |
| 2026-04-30 13:57 | 36.39478 | 27.97949 | 3181 ft | 248 kts | 265° |
| 2026-04-30 13:57 | 36.39339 | 27.95745 | 3821 ft | 261 kts | 265° |
| 2026-04-30 13:57 | 36.39194 | 27.93459 | 4439 ft | 268 kts | 265° |
| 2026-04-30 13:57 | 36.39046 | 27.91152 | 4937 ft | 270 kts | 265° |
| 2026-04-30 13:58 | 36.38896 | 27.88824 | 5891 ft | 272 kts | 266° |
| 2026-04-30 13:58 | 36.38589 | 27.84082 | 7611 ft | 279 kts | 266° |
| 2026-04-30 13:58 | 36.38433 | 27.81674 | 8493 ft | 281 kts | 267° |
| 2026-04-30 13:59 | 36.38279 | 27.79248 | 9366 ft | 284 kts | 266° |
| 2026-04-30 13:59 | 36.38145 | 27.76783 | 10156 ft | 290 kts | 270° |
| 2026-04-30 13:59 | 36.38346 | 27.74200 | 10418 ft | 313 kts | 280° |
| 2026-04-30 13:59 | 36.38726 | 27.71445 | 10761 ft | 331 kts | 280° |
| 2026-04-30 14:00 | 36.39103 | 27.68588 | 11405 ft | 338 kts | 279° |
| 2026-04-30 14:00 | 36.39832 | 27.62802 | 12921 ft | 344 kts | 279° |
| 2026-04-30 14:00 | 36.40199 | 27.59847 | 13686 ft | 347 kts | 279° |
| 2026-04-30 14:01 | 36.40568 | 27.56874 | 14368 ft | 350 kts | 279° |
| 2026-04-30 14:01 | 36.40938 | 27.53873 | 15026 ft | 353 kts | 279° |
| 2026-04-30 14:01 | 36.41311 | 27.50850 | 15680 ft | 356 kts | 279° |
| 2026-04-30 14:01 | 36.41688 | 27.47803 | 16332 ft | 358 kts | 279° |
| 2026-04-30 14:02 | 36.42071 | 27.44730 | 16988 ft | 361 kts | 279° |
| 2026-04-30 14:02 | 36.42458 | 27.41632 | 17628 ft | 364 kts | 279° |
| 2026-04-30 14:02 | 36.42846 | 27.38514 | 18261 ft | 367 kts | 279° |
| 2026-04-30 14:02 | 36.43232 | 27.35401 | 18818 ft | 370 kts | 279° |
| 2026-04-30 14:03 | 36.43623 | 27.32237 | 19392 ft | 372 kts | 279° |
| 2026-04-30 14:03 | 36.44285 | 27.29129 | 19927 ft | 375 kts | 294° |
| 2026-04-30 14:03 | 36.45688 | 27.26395 | 20496 ft | 379 kts | 311° |
| 2026-04-30 14:03 | 36.47559 | 27.24068 | 21075 ft | 382 kts | 314° |
| 2026-04-30 14:04 | 36.49475 | 27.21771 | 21653 ft | 384 kts | 314° |
| 2026-04-30 14:04 | 36.51415 | 27.19460 | 22209 ft | 387 kts | 314° |
| 2026-04-30 14:04 | 36.53361 | 27.17140 | 22747 ft | 389 kts | 314° |
| 2026-04-30 14:04 | 36.55323 | 27.14793 | 23262 ft | 392 kts | 314° |
| 2026-04-30 14:05 | 36.57292 | 27.12427 | 23748 ft | 394 kts | 314° |
| 2026-04-30 14:05 | 36.59263 | 27.10051 | 24178 ft | 396 kts | 314° |
| 2026-04-30 14:05 | 36.61242 | 27.07658 | 24596 ft | 398 kts | 314° |
| 2026-04-30 14:05 | 36.63230 | 27.05254 | 25005 ft | 399 kts | 314° |
| 2026-04-30 14:06 | 36.65234 | 27.02835 | 25401 ft | 401 kts | 314° |
| 2026-04-30 14:06 | 36.69239 | 26.98002 | 26173 ft | 405 kts | 313° |
| 2026-04-30 14:07 | 36.73298 | 26.93094 | 26939 ft | 408 kts | 313° |
| 2026-04-30 14:07 | 36.75343 | 26.90616 | 27314 ft | 410 kts | 313° |
| 2026-04-30 14:07 | 36.77392 | 26.88128 | 27679 ft | 412 kts | 313° |
| 2026-04-30 14:08 | 36.81505 | 26.83119 | 28415 ft | 414 kts | 313° |
| 2026-04-30 14:08 | 36.83573 | 26.80598 | 28765 ft | 416 kts | 313° |
| 2026-04-30 14:08 | 36.87731 | 26.75532 | 29425 ft | 419 kts | 313° |
| 2026-04-30 14:09 | 36.89826 | 26.72980 | 29665 ft | 423 kts | 313° |
| 2026-04-30 14:09 | 36.91916 | 26.70431 | 29939 ft | 425 kts | 313° |
| 2026-04-30 14:09 | 36.96158 | 26.65245 | 30428 ft | 428 kts | 313° |
| 2026-04-30 14:10 | 36.98290 | 26.62634 | 30652 ft | 429 kts | 313° |
| 2026-04-30 14:10 | 37.00429 | 26.60015 | 30892 ft | 430 kts | 313° |
| 2026-04-30 14:10 | 37.02563 | 26.57400 | 31200 ft | 429 kts | 313° |
| 2026-04-30 14:10 | 37.04690 | 26.54794 | 31524 ft | 427 kts | 312° |
| 2026-04-30 14:11 | 37.06813 | 26.52188 | 31834 ft | 426 kts | 312° |
| 2026-04-30 14:11 | 37.08927 | 26.49591 | 32146 ft | 425 kts | 312° |
| 2026-04-30 14:11 | 37.11039 | 26.46999 | 32458 ft | 424 kts | 312° |
| 2026-04-30 14:11 | 37.13145 | 26.44412 | 32769 ft | 423 kts | 312° |
| 2026-04-30 14:12 | 37.15247 | 26.41826 | 33078 ft | 422 kts | 312° |
| 2026-04-30 14:12 | 37.17338 | 26.39245 | 33392 ft | 421 kts | 312° |
| 2026-04-30 14:12 | 37.19423 | 26.36667 | 33747 ft | 419 kts | 311° |
| 2026-04-30 14:12 | 37.21492 | 26.34107 | 34090 ft | 417 kts | 311° |
| 2026-04-30 14:13 | 37.23524 | 26.31587 | 34371 ft | 416 kts | 311° |
| 2026-04-30 14:13 | 37.25581 | 26.29040 | 34636 ft | 415 kts | 311° |
| 2026-04-30 14:13 | 37.27642 | 26.26495 | 34895 ft | 414 kts | 311° |
| 2026-04-30 14:13 | 37.29695 | 26.23960 | 35121 ft | 414 kts | 311° |
| 2026-04-30 14:14 | 37.31751 | 26.21416 | 35346 ft | 414 kts | 311° |
| 2026-04-30 14:14 | 37.33799 | 26.18876 | 35571 ft | 414 kts | 311° |
| 2026-04-30 14:14 | 37.35845 | 26.16333 | 35794 ft | 413 kts | 311° |
| 2026-04-30 14:14 | 37.37885 | 26.13793 | 36009 ft | 413 kts | 311° |
| 2026-04-30 14:15 | 37.39923 | 26.11256 | 36229 ft | 412 kts | 311° |
| 2026-04-30 14:15 | 37.41962 | 26.08720 | 36439 ft | 412 kts | 311° |
| 2026-04-30 14:15 | 37.43999 | 26.06188 | 36644 ft | 411 kts | 311° |
| 2026-04-30 14:15 | 37.46035 | 26.03657 | 36848 ft | 411 kts | 311° |
| 2026-04-30 14:16 | 37.48073 | 26.01119 | 37035 ft | 410 kts | 311° |
| 2026-04-30 14:16 | 37.50101 | 25.98585 | 37252 ft | 410 kts | 311° |
| 2026-04-30 14:16 | 37.52121 | 25.96061 | 37449 ft | 409 kts | 311° |
| 2026-04-30 14:16 | 37.54136 | 25.93535 | 37639 ft | 408 kts | 311° |
| 2026-04-30 14:17 | 37.56152 | 25.91008 | 37815 ft | 408 kts | 311° |
| 2026-04-30 14:17 | 37.58187 | 25.88578 | 37974 ft | 410 kts | 317° |
| 2026-04-30 14:17 | 37.60536 | 25.86507 | 38006 ft | 416 kts | 326° |
| 2026-04-30 14:18 | 37.65750 | 25.83252 | 38004 ft | 418 kts | 329° |
| 2026-04-30 14:18 | 37.73582 | 25.78385 | 38005 ft | 418 kts | 328° |
| 2026-04-30 14:19 | 37.81404 | 25.73486 | 38006 ft | 418 kts | 328° |
| 2026-04-30 14:20 | 37.86619 | 25.70232 | 38008 ft | 418 kts | 328° |
| 2026-04-30 14:20 | 37.94415 | 25.65353 | 38006 ft | 418 kts | 328° |
| 2026-04-30 14:21 | 37.99625 | 25.62082 | 38004 ft | 418 kts | 328° |
| 2026-04-30 14:22 | 38.07441 | 25.57170 | 38020 ft | 418 kts | 328° |
| 2026-04-30 14:22 | 38.15252 | 25.52254 | 38013 ft | 418 kts | 328° |
| 2026-04-30 14:23 | 38.25666 | 25.45671 | 38009 ft | 418 kts | 328° |
| 2026-04-30 14:24 | 38.33478 | 25.40722 | 38016 ft | 418 kts | 328° |
| 2026-04-30 14:25 | 38.43850 | 25.34126 | 38007 ft | 418 kts | 328° |
| 2026-04-30 14:26 | 38.51649 | 25.29164 | 38028 ft | 418 kts | 328° |
| 2026-04-30 14:27 | 38.59453 | 25.24171 | 38011 ft | 418 kts | 328° |
| 2026-04-30 14:27 | 38.64658 | 25.20834 | 38010 ft | 418 kts | 328° |
| 2026-04-30 14:28 | 38.72463 | 25.15832 | 38007 ft | 418 kts | 328° |
| 2026-04-30 14:28 | 38.77668 | 25.12494 | 38028 ft | 418 kts | 328° |
| 2026-04-30 14:29 | 38.87201 | 25.06354 | 38017 ft | 418 kts | 328° |
| 2026-04-30 14:31 | 39.01046 | 24.97392 | 38051 ft | 418 kts | 328° |
| 2026-04-30 14:31 | 39.08831 | 24.92340 | 38027 ft | 417 kts | 328° |
| 2026-04-30 14:32 | 39.16659 | 24.87401 | 38018 ft | 418 kts | 329° |
| 2026-04-30 14:33 | 39.21911 | 24.84188 | 38023 ft | 418 kts | 329° |
| 2026-04-30 14:33 | 39.29775 | 24.79326 | 38028 ft | 417 kts | 329° |
| 2026-04-30 14:34 | 39.34976 | 24.76086 | 38019 ft | 417 kts | 329° |
| 2026-04-30 14:34 | 39.40209 | 24.72816 | 38022 ft | 417 kts | 329° |
| 2026-04-30 14:35 | 39.48059 | 24.67906 | 38021 ft | 417 kts | 329° |
| 2026-04-30 14:36 | 39.53291 | 24.64633 | 38043 ft | 417 kts | 329° |
| 2026-04-30 14:36 | 39.58518 | 24.61356 | 38040 ft | 417 kts | 329° |
| 2026-04-30 14:37 | 39.63741 | 24.58081 | 38032 ft | 417 kts | 329° |
| 2026-04-30 14:37 | 39.68962 | 24.54788 | 38030 ft | 417 kts | 329° |
| 2026-04-30 14:38 | 39.74180 | 24.51497 | 38051 ft | 417 kts | 329° |
| 2026-04-30 14:38 | 39.79391 | 24.48206 | 38048 ft | 416 kts | 329° |
| 2026-04-30 14:39 | 39.84595 | 24.44916 | 38047 ft | 416 kts | 329° |
| 2026-04-30 14:39 | 39.89795 | 24.41620 | 38045 ft | 415 kts | 329° |
| 2026-04-30 14:40 | 39.96705 | 24.37228 | 38078 ft | 415 kts | 328° |
| 2026-04-30 14:40 | 40.02733 | 24.33397 | 38063 ft | 414 kts | 328° |
| 2026-04-30 14:41 | 40.07900 | 24.30101 | 38056 ft | 413 kts | 328° |
| 2026-04-30 14:41 | 40.12233 | 24.27340 | 38051 ft | 413 kts | 328° |
| 2026-04-30 14:42 | 40.17368 | 24.24052 | 38050 ft | 413 kts | 328° |
| 2026-04-30 14:42 | 40.22519 | 24.20748 | 38047 ft | 413 kts | 328° |
| 2026-04-30 14:43 | 40.27688 | 24.17440 | 38042 ft | 413 kts | 328° |
| 2026-04-30 14:43 | 40.32842 | 24.14137 | 38044 ft | 413 kts | 328° |
| 2026-04-30 14:44 | 40.37992 | 24.10813 | 38044 ft | 412 kts | 328° |
| 2026-04-30 14:44 | 40.43140 | 24.07485 | 38054 ft | 412 kts | 328° |
| 2026-04-30 14:45 | 40.48282 | 24.04165 | 38070 ft | 411 kts | 328° |
| 2026-04-30 14:45 | 40.53404 | 24.00860 | 38066 ft | 410 kts | 328° |
| 2026-04-30 14:46 | 40.58512 | 23.97550 | 38066 ft | 409 kts | 328° |
| 2026-04-30 14:46 | 40.63626 | 23.94270 | 38062 ft | 409 kts | 328° |
| 2026-04-30 14:47 | 40.68771 | 23.91057 | 38079 ft | 409 kts | 328° |
| 2026-04-30 14:47 | 40.73890 | 23.87873 | 38067 ft | 409 kts | 328° |
| 2026-04-30 14:48 | 40.79025 | 23.84643 | 38062 ft | 409 kts | 328° |
| 2026-04-30 14:48 | 40.84165 | 23.81387 | 38054 ft | 408 kts | 328° |
| 2026-04-30 14:49 | 40.89285 | 23.78135 | 38050 ft | 408 kts | 328° |
| 2026-04-30 14:49 | 40.94416 | 23.74885 | 38057 ft | 409 kts | 327° |
| 2026-04-30 14:50 | 41.02141 | 23.69990 | 38032 ft | 411 kts | 327° |
| 2026-04-30 14:51 | 41.09891 | 23.65066 | 38033 ft | 412 kts | 327° |
| 2026-04-30 14:52 | 41.17620 | 23.60135 | 38064 ft | 413 kts | 327° |
| 2026-04-30 14:52 | 41.25381 | 23.55161 | 38054 ft | 413 kts | 327° |
| 2026-04-30 14:53 | 41.33146 | 23.50172 | 38056 ft | 413 kts | 327° |
| 2026-04-30 14:54 | 41.43494 | 23.43489 | 38085 ft | 413 kts | 327° |
| 2026-04-30 14:55 | 41.51242 | 23.38434 | 38087 ft | 413 kts | 327° |
| 2026-04-30 14:56 | 41.61569 | 23.31681 | 38119 ft | 414 kts | 327° |
| 2026-04-30 14:57 | 41.69292 | 23.26617 | 38118 ft | 414 kts | 327° |
| 2026-04-30 14:58 | 41.79646 | 23.19805 | 38136 ft | 414 kts | 327° |
| 2026-04-30 14:58 | 41.87419 | 23.14684 | 38154 ft | 416 kts | 327° |
| 2026-04-30 15:00 | 42.00441 | 23.06057 | 38185 ft | 418 kts | 327° |
| 2026-04-30 15:01 | 42.10854 | 22.99137 | 38222 ft | 419 kts | 328° |
| 2026-04-30 15:01 | 42.18694 | 22.93899 | 38230 ft | 419 kts | 328° |
| 2026-04-30 15:02 | 42.23926 | 22.90402 | 38229 ft | 420 kts | 328° |
| 2026-04-30 15:03 | 42.37002 | 22.81634 | 38259 ft | 419 kts | 328° |
| 2026-04-30 15:04 | 42.50049 | 22.72842 | 38251 ft | 418 kts | 328° |
| 2026-04-30 15:06 | 42.63023 | 22.64050 | 38254 ft | 418 kts | 327° |
| 2026-04-30 15:07 | 42.73430 | 22.56988 | 38271 ft | 418 kts | 328° |
| 2026-04-30 15:08 | 42.83813 | 22.49872 | 38246 ft | 418 kts | 326° |
| 2026-04-30 15:09 | 42.95475 | 22.38325 | 38267 ft | 415 kts | 319° |
| 2026-04-30 15:10 | 43.04774 | 22.28885 | 38248 ft | 416 kts | 319° |
| 2026-04-30 15:11 | 43.18713 | 22.14606 | 38269 ft | 418 kts | 319° |
| 2026-04-30 15:13 | 43.30307 | 22.02665 | 38273 ft | 419 kts | 319° |
| 2026-04-30 15:14 | 43.46628 | 21.85793 | 38292 ft | 420 kts | 319° |
| 2026-04-30 15:17 | 43.67611 | 21.63902 | 38267 ft | 421 kts | 319° |
| 2026-04-30 15:19 | 43.87205 | 21.45789 | 38262 ft | 424 kts | 323° |